createdAt,value
2023-03-02T00:02:47.683Z,4.97
2023-03-02T00:06:59.575Z,5.40
2023-03-02T00:11:08.207Z,5.00
2023-03-02T00:15:16.828Z,5.10
2023-03-02T00:19:25.377Z,6.13
2023-03-02T00:23:54.608Z,5.03
2023-03-02T00:28:03.332Z,4.43
2023-03-02T00:32:31.355Z,5.00
2023-03-02T00:36:40.482Z,3.90
2023-03-02T00:40:52.124Z,6.27
2023-03-02T00:45:01.669Z,5.20
2023-03-02T00:49:10.286Z,5.30
2023-03-02T00:53:19.031Z,5.60
2023-03-02T00:57:27.658Z,4.80
2023-03-02T01:01:37.425Z,4.50
2023-03-02T01:05:46.089Z,4.63
2023-03-02T01:09:55.002Z,5.70
2023-03-02T01:14:03.717Z,5.93
2023-03-02T01:18:13.165Z,6.17
2023-03-02T01:22:22.539Z,4.00
2023-03-02T01:26:31.409Z,4.47
2023-03-02T01:30:40.087Z,4.97
2023-03-02T01:34:48.634Z,4.90
2023-03-02T01:38:57.204Z,5.33
2023-03-02T01:43:08.929Z,5.57
2023-03-02T01:47:26.567Z,4.77
2023-03-02T01:51:41.103Z,4.70
2023-03-02T01:55:50.034Z,5.33
2023-03-02T02:00:01.699Z,5.73
2023-03-02T02:04:11.265Z,4.60
2023-03-02T02:08:20.054Z,5.27
2023-03-02T02:12:48.039Z,4.77
2023-03-02T02:16:56.744Z,5.47
2023-03-02T02:21:06.454Z,5.80
2023-03-02T02:25:20.902Z,5.17
2023-03-02T02:29:33.048Z,5.10
2023-03-02T02:33:45.291Z,5.37
2023-03-02T02:37:56.807Z,6.17
2023-03-02T02:42:07.934Z,4.43
2023-03-02T02:46:17.211Z,6.03
2023-03-02T02:50:31.863Z,5.60
2023-03-02T02:54:40.641Z,5.20
2023-03-02T02:58:52.232Z,5.80
2023-03-02T03:03:03.827Z,5.80
2023-03-02T03:07:18.295Z,6.37
2023-03-02T03:11:32.065Z,5.17
2023-03-02T03:15:40.695Z,4.70
2023-03-02T03:19:49.333Z,4.70
2023-03-02T03:23:57.886Z,5.27
2023-03-02T03:28:06.497Z,5.30
2023-03-02T03:32:15.435Z,4.73
2023-03-02T03:36:24.643Z,5.90
2023-03-02T03:40:35.215Z,4.47
2023-03-02T03:44:43.845Z,5.20
2023-03-02T03:48:52.455Z,6.20
2023-03-02T03:53:03.417Z,5.80
2023-03-02T03:57:12.244Z,4.40
2023-03-02T04:01:22.984Z,4.30
2023-03-02T04:05:31.868Z,4.73
2023-03-02T04:09:41.287Z,3.60
2023-03-02T04:13:50.071Z,4.37
2023-03-02T04:17:58.586Z,4.60
2023-03-02T04:22:07.223Z,4.07
2023-03-02T04:26:16.256Z,5.27
2023-03-02T04:30:27.655Z,5.47
2023-03-02T04:34:36.591Z,4.90
2023-03-02T04:38:45.326Z,4.80
2023-03-02T04:42:53.958Z,4.33
2023-03-02T04:47:02.468Z,4.17
2023-03-02T04:51:21.790Z,4.43
2023-03-02T04:55:30.411Z,5.73
2023-03-02T04:59:39.171Z,4.60
2023-03-02T05:03:48.153Z,4.83
2023-03-02T05:07:58.445Z,4.50
2023-03-02T05:12:07.208Z,4.57
2023-03-02T05:16:15.976Z,4.37
2023-03-02T05:20:44.209Z,5.00
2023-03-02T05:24:52.809Z,4.40
2023-03-02T05:29:01.449Z,4.63
2023-03-02T05:33:10.310Z,5.13
2023-03-02T05:37:39.997Z,4.30
2023-03-02T05:41:48.619Z,4.10
2023-03-02T05:45:58.989Z,4.30
2023-03-02T05:50:08.506Z,3.93
2023-03-02T05:54:17.166Z,5.20
2023-03-02T05:58:25.797Z,4.70
2023-03-02T06:02:34.421Z,5.77
2023-03-02T06:06:43.051Z,5.17
2023-03-02T06:10:53.150Z,4.50
2023-03-02T06:15:01.739Z,4.13
2023-03-02T06:19:10.368Z,4.37
2023-03-02T06:23:19.003Z,5.83
2023-03-02T06:27:27.514Z,5.57
2023-03-02T06:31:36.271Z,6.10
2023-03-02T06:35:44.844Z,6.23
2023-03-02T06:39:53.457Z,4.90
2023-03-02T06:44:02.379Z,4.17
2023-03-02T06:48:10.983Z,5.97
2023-03-02T06:52:19.504Z,5.40
2023-03-02T06:56:28.337Z,6.53
2023-03-02T07:00:36.891Z,5.97
2023-03-02T07:04:45.479Z,4.73
2023-03-02T07:08:54.017Z,5.07
2023-03-02T07:13:02.756Z,4.40
2023-03-02T07:17:12.455Z,6.10
2023-03-02T07:21:21.126Z,4.70
2023-03-02T07:25:29.757Z,5.23
2023-03-02T07:29:38.280Z,4.30
2023-03-02T07:33:46.803Z,4.97
2023-03-02T07:37:55.644Z,4.27
2023-03-02T07:42:06.671Z,4.97
2023-03-02T07:46:19.691Z,5.33
2023-03-02T07:50:28.374Z,5.00
2023-03-02T07:54:37.022Z,4.17
2023-03-02T07:58:45.543Z,5.90
2023-03-02T08:02:54.121Z,4.97
2023-03-02T08:07:02.702Z,7.00
2023-03-02T08:11:16.913Z,5.77
2023-03-02T08:15:25.477Z,5.13
2023-03-02T08:19:34.107Z,4.97
2023-03-02T08:23:43.266Z,5.63
2023-03-02T08:27:51.889Z,5.77
2023-03-02T08:32:01.162Z,6.50
2023-03-02T08:36:29.153Z,6.33
2023-03-02T08:40:37.747Z,6.35
2023-03-02T08:44:46.341Z,5.87
2023-03-02T08:48:54.878Z,6.70
2023-03-02T08:53:03.624Z,6.47
2023-03-02T08:57:13.326Z,6.67
2023-03-02T09:01:30.920Z,17.47
2023-03-02T09:05:39.858Z,9.37
2023-03-02T09:09:48.484Z,6.50
2023-03-02T09:13:57.442Z,7.20
2023-03-02T09:18:06.247Z,6.40
2023-03-02T09:22:14.808Z,7.78
2023-03-02T09:26:23.724Z,7.20
2023-03-02T09:30:52.719Z,6.00
2023-03-02T09:35:01.661Z,5.83
2023-03-02T09:39:11.857Z,6.10
2023-03-02T09:43:45.054Z,8.23
2023-03-02T09:48:08.446Z,6.17
2023-03-02T09:52:38.436Z,6.57
2023-03-02T09:56:50.341Z,5.40
2023-03-02T10:01:03.636Z,5.40
2023-03-02T10:05:20.642Z,5.90
2023-03-02T10:09:29.370Z,6.80
2023-03-02T10:13:47.455Z,6.50
2023-03-02T10:18:04.606Z,5.50
2023-03-02T10:22:37.709Z,6.20
2023-03-02T10:26:48.938Z,5.40
2023-03-02T10:31:21.135Z,5.93
2023-03-02T10:35:50.842Z,5.97
2023-03-02T10:39:59.468Z,5.33
2023-03-02T10:44:16.634Z,6.60
2023-03-02T10:48:25.196Z,6.33
2023-03-02T10:52:35.066Z,5.57
2023-03-02T10:56:45.849Z,8.43
2023-03-02T11:01:06.157Z,6.67
2023-03-02T11:05:23.798Z,6.90
2023-03-02T11:09:32.498Z,6.13
2023-03-02T11:13:41.142Z,7.00
2023-03-02T11:18:02.151Z,7.33
2023-03-02T11:22:22.653Z,5.77
2023-03-02T11:26:55.288Z,6.63
2023-03-02T11:31:07.102Z,5.63
2023-03-02T11:35:24.659Z,6.00
2023-03-02T11:39:55.941Z,6.10
2023-03-02T11:44:10.570Z,5.30
2023-03-02T11:48:40.033Z,6.53
2023-03-02T11:52:54.670Z,6.57
2023-03-02T11:57:03.912Z,7.23
2023-03-02T12:01:15.509Z,5.20
2023-03-02T12:05:27.202Z,5.57
2023-03-02T12:09:38.328Z,5.83
2023-03-02T12:13:52.698Z,5.77
2023-03-02T12:18:01.343Z,6.87
2023-03-02T12:22:19.986Z,5.97
2023-03-02T12:26:47.818Z,5.97
2023-03-02T12:31:08.641Z,5.70
2023-03-02T12:35:22.566Z,6.10
2023-03-02T12:39:46.215Z,4.90
2023-03-02T12:44:03.702Z,3.77
2023-03-02T12:48:30.821Z,5.77
2023-03-02T12:52:39.469Z,5.60
2023-03-02T12:56:48.994Z,5.60
2023-03-02T13:01:03.165Z,5.03
2023-03-02T13:05:14.954Z,4.53
2023-03-02T13:09:24.572Z,5.93
2023-03-02T13:13:37.069Z,5.00
2023-03-02T13:17:47.840Z,6.90
2023-03-02T13:21:56.766Z,5.00
2023-03-02T13:26:06.448Z,5.33
2023-03-02T13:30:27.754Z,5.20
2023-03-02T13:34:37.011Z,5.70
2023-03-02T13:38:48.618Z,5.27
2023-03-02T13:42:57.663Z,4.90
2023-03-02T13:47:07.742Z,5.30
2023-03-02T13:51:21.761Z,4.53
2023-03-02T13:55:30.474Z,5.80
2023-03-02T13:59:39.040Z,5.03
2023-03-02T14:03:47.617Z,4.80
2023-03-02T14:07:56.221Z,6.07
2023-03-02T14:12:06.816Z,4.62
2023-03-02T14:16:17.237Z,5.40
2023-03-02T14:20:25.905Z,5.43
2023-03-02T14:24:34.630Z,4.63
2023-03-02T14:28:43.259Z,4.90
2023-03-02T14:32:51.850Z,5.13
2023-03-02T14:37:02.904Z,5.53
2023-03-02T14:41:34.424Z,4.43
2023-03-02T14:45:41.112Z,5.70
2023-03-02T14:49:49.737Z,5.07
2023-03-02T14:54:01.950Z,5.57
2023-03-02T14:58:16.949Z,5.20
2023-03-02T15:02:26.951Z,5.10
2023-03-02T15:06:55.393Z,5.50
2023-03-02T15:11:04.042Z,5.50
2023-03-02T15:15:13.526Z,4.80
2023-03-02T15:19:22.198Z,4.40
2023-03-02T15:23:30.830Z,5.23
2023-03-02T15:27:39.461Z,6.20
2023-03-02T15:31:48.213Z,5.30
2023-03-02T15:35:56.769Z,4.70
2023-03-02T15:40:05.638Z,4.60
2023-03-02T15:44:18.906Z,5.73
2023-03-02T15:48:29.312Z,6.17
2023-03-02T15:52:37.873Z,6.83
2023-03-02T15:56:50.022Z,5.53
2023-03-02T16:00:58.352Z,6.83
2023-03-02T16:05:07.757Z,6.23
2023-03-02T16:09:16.389Z,8.00
2023-03-02T16:13:25.018Z,7.97
2023-03-02T16:17:33.535Z,8.60
2023-03-02T16:21:42.540Z,7.13
2023-03-02T16:25:51.417Z,9.47
2023-03-02T16:29:59.996Z,7.47
2023-03-02T16:34:10.612Z,8.33
2023-03-02T16:38:21.113Z,8.47
2023-03-02T16:42:30.541Z,6.87
2023-03-02T16:46:43.659Z,7.90
2023-03-02T16:50:59.183Z,6.93
2023-03-02T16:55:10.955Z,6.97
2023-03-02T16:59:19.595Z,8.63
2023-03-02T17:03:28.224Z,8.73
2023-03-02T17:07:36.892Z,8.48
2023-03-02T17:11:45.443Z,7.53
2023-03-02T17:15:54.433Z,9.50
2023-03-02T17:20:03.101Z,8.23
2023-03-02T17:24:11.705Z,8.83
2023-03-02T17:28:39.868Z,6.57
2023-03-02T17:32:48.800Z,8.17
2023-03-02T17:36:57.937Z,8.03
2023-03-02T17:41:10.699Z,9.20
2023-03-02T17:45:25.156Z,9.23
2023-03-02T17:49:53.110Z,8.00
2023-03-02T17:54:01.749Z,9.80
2023-03-02T17:58:10.468Z,8.97
2023-03-02T18:02:19.677Z,9.30
2023-03-02T18:06:29.259Z,8.40
2023-03-02T18:10:37.790Z,10.13
2023-03-02T18:14:46.649Z,9.00
2023-03-02T18:18:56.000Z,10.40
2023-03-02T18:23:04.721Z,9.00
2023-03-02T18:27:13.332Z,9.73
2023-03-02T18:31:22.517Z,7.93
2023-03-02T18:35:31.092Z,7.90
2023-03-02T18:39:39.697Z,8.20
2023-03-02T18:43:49.774Z,8.00
2023-03-02T18:47:59.258Z,7.97
2023-03-02T18:52:09.685Z,6.67
2023-03-02T18:56:18.904Z,7.33
2023-03-02T19:00:48.287Z,6.60
2023-03-02T19:04:56.829Z,6.57
2023-03-02T19:09:05.399Z,9.70
2023-03-02T19:13:15.540Z,7.40
2023-03-02T19:17:24.935Z,8.37
2023-03-02T19:21:33.456Z,8.70
2023-03-02T19:25:42.597Z,8.43
2023-03-02T19:29:51.149Z,7.80
2023-03-02T19:34:00.381Z,8.80
2023-03-02T19:38:10.225Z,8.30
2023-03-02T19:42:18.850Z,9.50
2023-03-02T19:46:27.482Z,8.10
2023-03-02T19:50:36.210Z,9.13
2023-03-02T19:54:44.747Z,9.47
2023-03-02T19:58:54.249Z,9.80
2023-03-02T20:03:03.192Z,9.87
2023-03-02T20:07:12.054Z,9.43
2023-03-02T20:11:21.296Z,10.57
2023-03-02T20:15:30.924Z,10.37
2023-03-02T20:19:39.478Z,9.87
2023-03-02T20:23:49.081Z,9.93
2023-03-02T20:27:58.420Z,10.57
2023-03-02T20:32:09.247Z,9.83
2023-03-02T20:36:20.566Z,8.67
2023-03-02T20:40:31.330Z,10.30
2023-03-02T20:44:40.073Z,8.97
2023-03-02T20:48:49.600Z,9.10
2023-03-02T20:52:58.241Z,9.80
2023-03-02T20:57:08.685Z,11.47
2023-03-02T21:01:18.975Z,10.90
2023-03-02T21:05:29.701Z,11.20
2023-03-02T21:09:38.377Z,11.13
2023-03-02T21:13:48.711Z,11.60
2023-03-02T21:17:59.529Z,12.43
2023-03-02T21:22:08.126Z,11.27
2023-03-02T21:26:18.952Z,13.43
2023-03-02T21:30:47.077Z,11.90
2023-03-02T21:34:55.754Z,12.60
2023-03-02T21:39:06.580Z,12.43
2023-03-02T21:43:16.492Z,12.87
2023-03-02T21:47:25.119Z,12.17
2023-03-02T21:51:33.975Z,12.30
2023-03-02T21:55:44.187Z,13.20
2023-03-02T21:59:54.635Z,12.67
2023-03-02T22:04:03.227Z,13.33
2023-03-02T22:08:14.852Z,12.60
2023-03-02T22:12:24.139Z,13.10
2023-03-02T22:16:38.590Z,14.10
2023-03-02T22:20:50.128Z,13.63
2023-03-02T22:25:00.692Z,13.20
2023-03-02T22:29:18.257Z,12.68
2023-03-02T22:33:29.679Z,14.60
2023-03-02T22:37:38.229Z,14.83
2023-03-02T22:41:46.806Z,13.47
2023-03-02T22:45:57.150Z,20.10
2023-03-02T22:50:27.355Z,21.13
2023-03-02T22:54:55.274Z,17.50
2023-03-02T22:59:22.448Z,19.20
2023-03-02T23:03:42.784Z,22.10
2023-03-02T23:07:52.319Z,23.87
2023-03-02T23:12:15.733Z,19.70
2023-03-02T23:16:30.498Z,20.93
2023-03-02T23:20:39.479Z,21.67
2023-03-02T23:24:48.322Z,18.77
2023-03-02T23:28:57.125Z,21.20
2023-03-02T23:33:06.115Z,19.10
2023-03-02T23:37:14.809Z,18.93
2023-03-02T23:41:42.749Z,15.83
2023-03-02T23:45:51.666Z,15.17
2023-03-02T23:50:00.469Z,15.70
2023-03-02T23:54:09.003Z,15.40
2023-03-02T23:58:18.200Z,16.63
